createdAt,value
2023-03-01T00:00:47.891Z,-1.71
2023-03-01T00:03:23.967Z,-1.71
2023-03-01T00:05:52.326Z,-1.72
2023-03-01T00:08:20.707Z,-1.73
2023-03-01T00:11:11.716Z,-1.73
2023-03-01T00:13:42.144Z,-1.74
2023-03-01T00:16:14.451Z,-1.76
2023-03-01T00:18:42.881Z,-1.77
2023-03-01T00:21:11.864Z,-1.79
2023-03-01T00:23:40.676Z,-1.80
2023-03-01T00:26:12.019Z,-1.81
2023-03-01T00:28:41.727Z,-1.82
2023-03-01T00:31:14.499Z,-1.83
2023-03-01T00:33:44.433Z,-1.84
2023-03-01T00:36:16.598Z,-1.85
2023-03-01T00:38:47.355Z,-1.87
2023-03-01T00:41:17.649Z,-1.87
2023-03-01T00:43:46.567Z,-1.87
2023-03-01T00:46:18.559Z,-1.89
2023-03-01T00:48:47.616Z,-1.91
2023-03-01T00:51:22.361Z,-1.92
2023-03-01T00:53:55.772Z,-1.93
2023-03-01T00:56:24.921Z,-1.95
2023-03-01T00:58:53.929Z,-1.97
2023-03-01T01:01:24.747Z,-1.99
2023-03-01T01:04:07.874Z,-2.02
2023-03-01T01:06:45.471Z,-2.05
2023-03-01T01:09:18.628Z,-2.09
2023-03-01T01:11:52.224Z,-2.14
2023-03-01T01:14:21.064Z,-2.21
2023-03-01T01:16:50.663Z,-2.27
2023-03-01T01:19:19.344Z,-2.33
2023-03-01T01:21:49.270Z,-2.38
2023-03-01T01:24:18.564Z,-2.41
2023-03-01T01:26:47.350Z,-2.44
2023-03-01T01:29:16.045Z,-2.47
2023-03-01T01:31:45.065Z,-2.48
2023-03-01T01:34:22.450Z,-2.50
2023-03-01T01:36:55.103Z,-2.51
2023-03-01T01:39:23.787Z,-2.52
2023-03-01T01:41:51.949Z,-2.52
2023-03-01T01:44:21.862Z,-2.53
2023-03-01T01:47:25.880Z,-2.54
2023-03-01T01:49:57.252Z,-2.55
2023-03-01T01:52:32.196Z,-2.55
2023-03-01T01:55:06.591Z,-2.57
2023-03-01T01:57:37.826Z,-2.57
2023-03-01T02:00:11.335Z,-2.57
2023-03-01T02:02:44.785Z,-2.58
2023-03-01T02:05:27.243Z,-2.57
2023-03-01T02:07:57.258Z,-2.57
2023-03-01T02:10:26.566Z,-2.57
2023-03-01T02:12:55.754Z,-2.56
2023-03-01T02:15:25.318Z,-2.56
2023-03-01T02:17:55.495Z,-2.44
2023-03-01T02:20:29.593Z,-2.27
2023-03-01T02:22:59.611Z,-2.17
2023-03-01T02:26:04.542Z,-2.12
2023-03-01T02:28:36.396Z,-2.11
2023-03-01T02:31:26.150Z,-2.09
2023-03-01T02:33:56.075Z,-2.07
2023-03-01T02:36:32.312Z,-2.06
2023-03-01T02:39:03.418Z,-2.06
2023-03-01T02:41:36.911Z,-2.10
2023-03-01T02:44:06.659Z,-2.16
2023-03-01T02:46:35.304Z,-2.16
2023-03-01T02:49:18.853Z,-2.21
2023-03-01T02:52:03.816Z,-2.39
2023-03-01T02:54:32.198Z,-2.51
2023-03-01T02:57:02.571Z,-2.56
2023-03-01T02:59:40.340Z,-2.60
2023-03-01T03:02:39.301Z,-2.64
2023-03-01T03:05:18.777Z,-2.66
2023-03-01T03:07:49.572Z,-2.69
2023-03-01T03:10:22.679Z,-2.68
2023-03-01T03:12:56.623Z,-2.66
2023-03-01T03:15:25.893Z,-2.66
2023-03-01T03:17:54.981Z,-2.68
2023-03-01T03:20:26.944Z,-2.72
2023-03-01T03:22:59.388Z,-2.76
2023-03-01T03:25:29.852Z,-2.80
2023-03-01T03:27:59.264Z,-2.83
2023-03-01T03:30:32.546Z,-2.84
2023-03-01T03:33:01.233Z,-2.83
2023-03-01T03:35:32.387Z,-2.84
2023-03-01T03:38:04.952Z,-2.88
2023-03-01T03:40:41.720Z,-2.91
2023-03-01T03:43:21.787Z,-2.94
2023-03-01T03:45:51.874Z,-2.96
2023-03-01T03:48:20.891Z,-2.97
2023-03-01T03:50:51.717Z,-2.98
2023-03-01T03:53:21.133Z,-3.01
2023-03-01T03:55:52.771Z,-3.02
2023-03-01T03:58:23.025Z,-3.04
2023-03-01T04:00:54.642Z,-3.07
2023-03-01T04:03:24.472Z,-3.09
2023-03-01T04:05:53.916Z,-3.10
2023-03-01T04:08:23.786Z,-3.11
2023-03-01T04:10:54.996Z,-3.12
2023-03-01T04:13:26.382Z,-3.13
2023-03-01T04:15:56.093Z,-3.14
2023-03-01T04:18:26.437Z,-3.14
2023-03-01T04:20:56.633Z,-3.15
2023-03-01T04:23:25.103Z,-3.15
2023-03-01T04:25:56.259Z,-3.15
2023-03-01T04:28:35.501Z,-3.17
2023-03-01T04:31:16.759Z,-3.19
2023-03-01T04:33:46.418Z,-3.21
2023-03-01T04:36:16.668Z,-3.22
2023-03-01T04:38:48.881Z,-3.23
2023-03-01T04:41:20.309Z,-3.23
2023-03-01T04:43:49.662Z,-3.25
2023-03-01T04:46:21.956Z,-3.27
2023-03-01T04:48:52.216Z,-3.27
2023-03-01T04:51:20.588Z,-3.27
2023-03-01T04:53:49.096Z,-3.26
2023-03-01T04:56:19.915Z,-3.27
2023-03-01T04:58:48.428Z,-3.26
2023-03-01T05:01:22.094Z,-3.27
2023-03-01T05:03:52.975Z,-3.29
2023-03-01T05:06:21.609Z,-3.30
2023-03-01T05:08:52.336Z,-3.32
2023-03-01T05:11:21.042Z,-3.33
2023-03-01T05:13:51.171Z,-3.34
2023-03-01T05:16:21.278Z,-3.35
2023-03-01T05:18:52.423Z,-3.35
2023-03-01T05:21:20.814Z,-3.35
2023-03-01T05:23:49.392Z,-3.35
2023-03-01T05:26:28.359Z,-3.35
2023-03-01T05:29:07.644Z,-3.35
2023-03-01T05:31:35.931Z,-3.35
2023-03-01T05:34:04.342Z,-3.37
2023-03-01T05:36:32.887Z,-3.39
2023-03-01T05:39:01.887Z,-3.41
2023-03-01T05:41:30.567Z,-3.43
2023-03-01T05:43:59.047Z,-3.44
2023-03-01T05:46:27.186Z,-3.46
2023-03-01T05:48:56.523Z,-3.46
2023-03-01T05:51:25.133Z,-3.47
2023-03-01T05:53:53.595Z,-3.47
2023-03-01T05:56:23.498Z,-3.46
2023-03-01T05:58:52.404Z,-3.45
2023-03-01T06:01:22.633Z,-3.43
2023-03-01T06:03:50.998Z,-3.41
2023-03-01T06:06:20.258Z,-3.38
2023-03-01T06:08:49.193Z,-3.36
2023-03-01T06:11:20.448Z,-3.33
2023-03-01T06:13:48.812Z,-3.31
2023-03-01T06:16:17.559Z,-3.27
2023-03-01T06:18:46.214Z,-3.22
2023-03-01T06:21:14.839Z,-3.15
2023-03-01T06:23:43.146Z,-3.09
2023-03-01T06:26:11.430Z,-3.03
2023-03-01T06:28:39.721Z,-2.97
2023-03-01T06:31:10.783Z,-2.90
2023-03-01T06:33:39.236Z,-2.84
2023-03-01T06:36:08.869Z,-2.77
2023-03-01T06:38:37.322Z,-2.71
2023-03-01T06:41:05.795Z,-2.64
2023-03-01T06:43:35.411Z,-2.56
2023-03-01T06:46:07.096Z,-2.45
2023-03-01T06:48:36.112Z,-2.35
2023-03-01T06:51:04.844Z,-2.23
2023-03-01T06:53:33.182Z,-2.11
2023-03-01T06:56:01.622Z,-2.02
2023-03-01T06:58:30.202Z,-1.93
2023-03-01T07:00:58.481Z,-1.85
2023-03-01T07:03:26.881Z,-1.78
2023-03-01T07:05:55.354Z,-1.73
2023-03-01T07:08:23.926Z,-1.68
2023-03-01T07:11:03.524Z,-1.64
2023-03-01T07:13:31.762Z,-1.61
2023-03-01T07:16:00.154Z,-1.54
2023-03-01T07:18:28.705Z,-1.45
2023-03-01T07:20:57.011Z,-1.35
2023-03-01T07:23:25.567Z,-1.26
2023-03-01T07:25:55.187Z,-1.16
2023-03-01T07:28:26.525Z,-1.06
2023-03-01T07:30:55.114Z,-0.95
2023-03-01T07:33:23.659Z,-0.82
2023-03-01T07:36:04.577Z,-0.68
2023-03-01T07:38:33.544Z,-0.53
2023-03-01T07:41:04.386Z,-0.39
2023-03-01T07:43:33.593Z,-0.26
2023-03-01T07:46:04.200Z,-0.13
2023-03-01T07:48:34.225Z,0.01
2023-03-01T07:51:04.665Z,0.14
2023-03-01T07:53:35.280Z,0.26
2023-03-01T07:56:09.842Z,0.38
2023-03-01T07:58:39.996Z,0.51
2023-03-01T08:01:11.442Z,0.65
2023-03-01T08:03:41.035Z,0.75
2023-03-01T08:06:12.637Z,0.83
2023-03-01T08:08:41.672Z,0.92
2023-03-01T08:11:13.121Z,1.02
2023-03-01T08:13:41.793Z,1.13
2023-03-01T08:16:15.744Z,1.23
2023-03-01T08:18:44.986Z,1.33
2023-03-01T08:21:16.951Z,1.41
2023-03-01T08:23:46.463Z,1.49
2023-03-01T08:26:19.848Z,1.57
2023-03-01T08:28:50.182Z,1.65
2023-03-01T08:31:25.799Z,1.78
2023-03-01T08:33:57.996Z,1.91
2023-03-01T08:36:32.920Z,2.03
2023-03-01T08:39:02.225Z,2.16
2023-03-01T08:41:30.898Z,2.27
2023-03-01T08:44:02.355Z,2.36
2023-03-01T08:46:37.289Z,2.45
2023-03-01T08:49:08.119Z,2.54
2023-03-01T08:51:40.116Z,2.62
2023-03-01T08:54:13.753Z,2.73
2023-03-01T08:56:42.994Z,2.83
2023-03-01T08:59:16.455Z,2.92
2023-03-01T09:01:45.186Z,2.97
2023-03-01T09:04:14.278Z,3.01
2023-03-01T09:06:43.370Z,3.05
2023-03-01T09:09:17.054Z,3.10
2023-03-01T09:11:47.534Z,3.15
2023-03-01T09:14:16.245Z,3.18
2023-03-01T09:16:44.861Z,3.21
2023-03-01T09:19:14.470Z,3.26
2023-03-01T09:21:54.226Z,3.31
2023-03-01T09:24:24.966Z,3.36
2023-03-01T09:26:57.643Z,3.40
2023-03-01T09:29:27.249Z,3.45
2023-03-01T09:31:56.574Z,3.50
2023-03-01T09:34:25.166Z,3.56
2023-03-01T09:36:53.577Z,3.60
2023-03-01T09:39:21.998Z,3.68
2023-03-01T09:41:55.598Z,3.75
2023-03-01T09:44:32.982Z,3.81
2023-03-01T09:47:03.248Z,3.85
2023-03-01T09:49:35.294Z,3.90
2023-03-01T09:52:27.915Z,3.95
2023-03-01T09:54:59.485Z,4.01
2023-03-01T09:57:31.667Z,4.06
2023-03-01T10:00:22.452Z,4.08
2023-03-01T10:03:00.968Z,4.09
2023-03-01T10:05:38.467Z,4.13
2023-03-01T10:08:09.909Z,4.18
2023-03-01T10:10:41.052Z,4.22
2023-03-01T10:13:23.148Z,4.28
2023-03-01T10:15:58.765Z,4.35
2023-03-01T10:18:29.925Z,4.40
2023-03-01T10:21:04.163Z,4.49
2023-03-01T10:23:33.573Z,4.56
2023-03-01T10:26:11.321Z,4.61
2023-03-01T10:28:41.175Z,4.64
2023-03-01T10:31:22.404Z,4.70
2023-03-01T10:33:56.674Z,4.75
2023-03-01T10:36:26.384Z,4.78
2023-03-01T10:38:59.304Z,4.85
2023-03-01T10:41:28.722Z,4.92
2023-03-01T10:44:00.686Z,4.98
2023-03-01T10:46:34.402Z,5.05
2023-03-01T10:49:19.600Z,5.13
2023-03-01T10:51:52.325Z,5.19
2023-03-01T10:54:26.712Z,5.22
2023-03-01T10:56:57.940Z,5.25
2023-03-01T10:59:40.059Z,5.25
2023-03-01T11:02:29.484Z,5.27
2023-03-01T11:05:16.758Z,5.30
2023-03-01T11:07:54.537Z,5.34
2023-03-01T11:10:29.207Z,5.33
2023-03-01T11:13:08.917Z,5.32
2023-03-01T11:18:33.923Z,5.41
2023-03-01T11:21:10.016Z,5.45
2023-03-01T11:23:40.853Z,5.50
2023-03-01T11:26:12.377Z,5.56
2023-03-01T11:28:44.044Z,5.64
2023-03-01T11:31:14.532Z,5.69
2023-03-01T11:33:49.641Z,5.73
2023-03-01T11:36:37.323Z,5.77
2023-03-01T11:39:27.635Z,5.81
2023-03-01T11:42:19.384Z,5.84
2023-03-01T11:44:53.686Z,5.85
2023-03-01T11:47:41.032Z,5.83
2023-03-01T11:50:09.567Z,5.85
2023-03-01T11:52:49.830Z,5.82
2023-03-01T11:55:33.164Z,5.81
2023-03-01T11:58:24.700Z,5.81
2023-03-01T12:01:17.733Z,5.85
2023-03-01T12:04:13.679Z,5.92
2023-03-01T12:06:47.781Z,5.94
2023-03-01T12:09:28.863Z,5.97
2023-03-01T12:12:40.109Z,6.02
2023-03-01T12:15:29.298Z,6.08
2023-03-01T12:18:22.574Z,6.13
2023-03-01T12:21:00.982Z,6.17
2023-03-01T12:23:56.096Z,6.17
2023-03-01T12:26:41.698Z,6.21
2023-03-01T12:29:35.336Z,6.25
2023-03-01T12:32:20.266Z,6.29
2023-03-01T12:35:03.734Z,6.35
2023-03-01T12:38:17.286Z,6.40
2023-03-01T12:41:07.692Z,6.44
2023-03-01T12:44:28.289Z,6.47
2023-03-01T12:47:18.388Z,6.45
2023-03-01T12:49:55.656Z,6.46
2023-03-01T12:52:30.803Z,6.50
2023-03-01T12:55:02.251Z,6.51
2023-03-01T12:57:48.099Z,6.56
2023-03-01T13:00:25.543Z,6.58
2023-03-01T13:03:13.260Z,6.62
2023-03-01T13:06:20.162Z,6.67
2023-03-01T13:11:35.926Z,6.74
2023-03-01T13:14:24.138Z,6.75
2023-03-01T13:16:54.469Z,6.78
2023-03-01T13:19:30.284Z,6.81
2023-03-01T13:21:58.739Z,6.85
2023-03-01T13:24:36.530Z,6.88
2023-03-01T13:27:08.122Z,6.91
2023-03-01T13:29:53.259Z,6.93
2023-03-01T13:32:43.030Z,6.97
2023-03-01T13:35:16.146Z,7.03
2023-03-01T13:37:45.530Z,7.07
2023-03-01T13:40:20.385Z,7.11
2023-03-01T13:43:04.150Z,7.14
2023-03-01T13:45:42.127Z,7.17
2023-03-01T13:48:16.536Z,7.17
2023-03-01T13:50:50.540Z,7.15
2023-03-01T13:53:21.488Z,7.09
2023-03-01T13:55:58.728Z,7.06
2023-03-01T13:58:34.245Z,7.03
2023-03-01T14:01:09.760Z,6.99
2023-03-01T14:03:43.336Z,6.98
2023-03-01T14:06:30.170Z,6.97
2023-03-01T14:09:16.584Z,6.95
2023-03-01T14:12:15.889Z,6.96
2023-03-01T14:14:50.704Z,6.96
2023-03-01T14:17:43.767Z,6.95
2023-03-01T14:20:25.878Z,6.95
2023-03-01T14:22:58.389Z,6.95
2023-03-01T14:25:33.893Z,6.97
2023-03-01T14:28:17.826Z,6.98
2023-03-01T14:30:51.790Z,6.98
2023-03-01T14:33:30.553Z,6.99
2023-03-01T14:36:06.453Z,6.99
2023-03-01T14:38:46.573Z,6.96
2023-03-01T14:41:20.286Z,6.92
2023-03-01T14:44:08.139Z,6.87
2023-03-01T14:46:39.721Z,6.85
2023-03-01T14:49:12.555Z,6.81
2023-03-01T14:51:44.325Z,6.77
2023-03-01T14:54:28.255Z,6.75
2023-03-01T14:57:01.034Z,6.72
2023-03-01T14:59:29.924Z,6.69
2023-03-01T15:02:00.850Z,6.67
2023-03-01T15:04:31.024Z,6.65
2023-03-01T15:07:06.349Z,6.63
2023-03-01T15:09:38.324Z,6.62
2023-03-01T15:12:28.499Z,6.61
2023-03-01T15:15:04.822Z,6.60
2023-03-01T15:17:39.694Z,6.57
2023-03-01T15:20:18.357Z,6.53
2023-03-01T15:22:50.005Z,6.49
2023-03-01T15:25:21.290Z,6.44
2023-03-01T15:27:52.293Z,6.40
2023-03-01T15:30:26.240Z,6.36
2023-03-01T15:33:28.099Z,6.33
2023-03-01T15:35:59.270Z,6.28
2023-03-01T15:38:33.216Z,6.23
2023-03-01T15:41:05.568Z,6.19
2023-03-01T15:43:46.110Z,6.15
2023-03-01T15:46:30.662Z,6.11
2023-03-01T15:49:06.177Z,6.06
2023-03-01T15:51:37.674Z,6.02
2023-03-01T15:54:19.931Z,5.98
2023-03-01T15:56:48.748Z,5.93
2023-03-01T15:59:18.048Z,5.88
2023-03-01T16:01:47.154Z,5.82
2023-03-01T16:04:22.050Z,5.75
2023-03-01T16:06:58.346Z,5.68
2023-03-01T16:09:28.042Z,5.62
2023-03-01T16:11:57.050Z,5.55
2023-03-01T16:14:25.944Z,5.48
2023-03-01T16:16:55.567Z,5.41
2023-03-01T16:19:25.082Z,5.34
2023-03-01T16:21:54.272Z,5.26
2023-03-01T16:24:23.247Z,5.18
2023-03-01T16:26:52.031Z,5.10
2023-03-01T16:29:21.029Z,5.00
2023-03-01T16:31:50.519Z,4.90
2023-03-01T16:34:23.128Z,4.81
2023-03-01T16:36:53.026Z,4.73
2023-03-01T16:39:21.540Z,4.66
2023-03-01T16:41:50.391Z,4.56
2023-03-01T16:44:19.705Z,4.45
2023-03-01T16:46:48.706Z,4.35
2023-03-01T16:49:17.377Z,4.23
2023-03-01T16:51:46.775Z,4.13
2023-03-01T16:54:16.083Z,4.04
2023-03-01T16:56:45.292Z,3.94
2023-03-01T16:59:14.462Z,3.85
2023-03-01T17:01:43.182Z,3.78
2023-03-01T17:04:13.686Z,3.69
2023-03-01T17:06:42.807Z,3.60
2023-03-01T17:09:13.054Z,3.52
2023-03-01T17:11:41.575Z,3.44
2023-03-01T17:14:10.784Z,3.38
2023-03-01T17:16:39.615Z,3.31
2023-03-01T17:19:08.673Z,3.27
2023-03-01T17:21:38.081Z,3.22
2023-03-01T17:24:07.392Z,3.17
2023-03-01T17:26:37.603Z,3.11
2023-03-01T17:29:07.103Z,3.07
2023-03-01T17:31:35.956Z,3.02
2023-03-01T17:34:04.368Z,2.99
2023-03-01T17:36:34.889Z,2.94
2023-03-01T17:39:03.576Z,2.89
2023-03-01T17:41:32.693Z,2.85
2023-03-01T17:44:01.993Z,2.81
2023-03-01T17:46:30.986Z,2.76
2023-03-01T17:49:00.251Z,2.73
2023-03-01T17:51:29.719Z,2.68
2023-03-01T17:53:59.598Z,2.63
2023-03-01T17:56:28.800Z,2.58
2023-03-01T17:58:57.887Z,2.52
2023-03-01T18:01:28.156Z,2.47
2023-03-01T18:03:57.818Z,2.43
2023-03-01T18:06:29.389Z,2.39
2023-03-01T18:08:58.596Z,2.37
2023-03-01T18:11:27.977Z,2.34
2023-03-01T18:13:56.864Z,2.31
2023-03-01T18:16:26.547Z,2.29
2023-03-01T18:18:58.661Z,2.27
2023-03-01T18:21:28.945Z,2.25
2023-03-01T18:23:59.890Z,2.22
2023-03-01T18:26:30.133Z,2.18
2023-03-01T18:29:01.534Z,2.13
2023-03-01T18:31:33.950Z,2.06
2023-03-01T18:34:04.145Z,1.99
2023-03-01T18:36:35.825Z,1.93
2023-03-01T18:39:07.374Z,1.85
2023-03-01T18:41:37.602Z,1.78
2023-03-01T18:44:08.595Z,1.70
2023-03-01T18:46:40.393Z,1.62
2023-03-01T18:49:11.528Z,1.54
2023-03-01T18:51:41.744Z,1.47
2023-03-01T18:54:13.165Z,1.40
2023-03-01T18:56:42.855Z,1.33
2023-03-01T18:59:13.000Z,1.26
2023-03-01T19:01:43.086Z,1.17
2023-03-01T19:04:14.152Z,1.08
2023-03-01T19:06:43.710Z,1.02
2023-03-01T19:09:14.728Z,0.97
2023-03-01T19:11:45.187Z,0.93
2023-03-01T19:14:19.744Z,0.90
2023-03-01T19:16:49.661Z,0.85
2023-03-01T19:19:19.668Z,0.82
2023-03-01T19:21:59.406Z,0.79
2023-03-01T19:24:35.961Z,0.76
2023-03-01T19:27:06.506Z,0.72
2023-03-01T19:29:36.527Z,0.70
2023-03-01T19:32:06.763Z,0.65
2023-03-01T19:34:37.816Z,0.61
2023-03-01T19:37:10.235Z,0.57
2023-03-01T19:39:39.534Z,0.54
2023-03-01T19:42:10.913Z,0.52
2023-03-01T19:44:42.530Z,0.49
2023-03-01T19:47:14.070Z,0.47
2023-03-01T19:49:46.506Z,0.44
2023-03-01T19:52:15.700Z,0.40
2023-03-01T19:54:44.829Z,0.36
2023-03-01T19:57:15.642Z,0.31
2023-03-01T19:59:45.269Z,0.28
2023-03-01T20:02:14.483Z,0.25
2023-03-01T20:04:45.836Z,0.19
2023-03-01T20:07:15.238Z,0.16
2023-03-01T20:09:46.431Z,0.10
2023-03-01T20:12:15.538Z,0.06
2023-03-01T20:14:44.930Z,0.01
2023-03-01T20:17:16.163Z,-0.03
2023-03-01T20:19:45.955Z,-0.06
2023-03-01T20:22:17.636Z,-0.09
2023-03-01T20:24:46.529Z,-0.11
2023-03-01T20:27:15.348Z,-0.14
2023-03-01T20:29:46.341Z,-0.16
2023-03-01T20:32:15.313Z,-0.19
2023-03-01T20:34:44.144Z,-0.21
2023-03-01T20:37:13.857Z,-0.22
2023-03-01T20:39:42.765Z,-0.24
2023-03-01T20:42:12.483Z,-0.25
2023-03-01T20:44:44.746Z,-0.26
2023-03-01T20:47:14.490Z,-0.28
2023-03-01T20:49:43.779Z,-0.30
2023-03-01T20:52:13.108Z,-0.32
2023-03-01T20:54:42.272Z,-0.34
2023-03-01T20:57:12.167Z,-0.38
2023-03-01T20:59:41.576Z,-0.40
2023-03-01T21:02:11.766Z,-0.41
2023-03-01T21:04:40.524Z,-0.42
2023-03-01T21:07:09.797Z,-0.43
2023-03-01T21:09:39.912Z,-0.45
2023-03-01T21:12:10.541Z,-0.47
2023-03-01T21:14:42.800Z,-0.48
2023-03-01T21:17:14.281Z,-0.51
2023-03-01T21:19:44.459Z,-0.53
2023-03-01T21:22:14.730Z,-0.55
2023-03-01T21:24:43.381Z,-0.58
2023-03-01T21:27:12.373Z,-0.59
2023-03-01T21:29:43.856Z,-0.61
2023-03-01T21:32:14.478Z,-0.63
2023-03-01T21:34:46.030Z,-0.66
2023-03-01T21:37:14.675Z,-0.69
2023-03-01T21:39:43.595Z,-0.70
2023-03-01T21:42:13.105Z,-0.72
2023-03-01T21:44:42.559Z,-0.75
2023-03-01T21:47:11.531Z,-0.78
2023-03-01T21:49:40.227Z,-0.82
2023-03-01T21:52:09.584Z,-0.86
2023-03-01T21:54:38.978Z,-0.89
2023-03-01T21:57:07.694Z,-0.92
2023-03-01T21:59:36.867Z,-0.97
2023-03-01T22:02:05.343Z,-0.99
2023-03-01T22:04:33.618Z,-1.02
2023-03-01T22:07:02.213Z,-1.04
2023-03-01T22:09:32.319Z,-1.07
2023-03-01T22:12:03.720Z,-1.10
2023-03-01T22:14:32.874Z,-1.13
2023-03-01T22:17:01.338Z,-1.15
2023-03-01T22:19:31.474Z,-1.18
2023-03-01T22:21:59.854Z,-1.22
2023-03-01T22:24:29.059Z,-1.25
2023-03-01T22:26:57.414Z,-1.28
2023-03-01T22:29:29.226Z,-1.30
2023-03-01T22:31:58.390Z,-1.33
2023-03-01T22:34:27.297Z,-1.36
2023-03-01T22:36:56.627Z,-1.40
2023-03-01T22:39:25.373Z,-1.42
2023-03-01T22:41:54.365Z,-1.44
2023-03-01T22:44:23.996Z,-1.46
2023-03-01T22:46:53.485Z,-1.47
2023-03-01T22:49:22.328Z,-1.47
2023-03-01T22:51:51.664Z,-1.47
2023-03-01T22:54:20.990Z,-1.49
2023-03-01T22:56:49.754Z,-1.53
2023-03-01T22:59:23.195Z,-1.56
2023-03-01T23:01:53.129Z,-1.59
2023-03-01T23:04:22.983Z,-1.62
2023-03-01T23:06:52.012Z,-1.65
2023-03-01T23:09:22.593Z,-1.68
2023-03-01T23:11:51.719Z,-1.71
2023-03-01T23:14:21.773Z,-1.71
2023-03-01T23:16:51.241Z,-1.73
2023-03-01T23:19:19.607Z,-1.76
2023-03-01T23:21:50.632Z,-1.77
2023-03-01T23:24:21.626Z,-1.75
2023-03-01T23:26:53.648Z,-1.73
2023-03-01T23:29:22.680Z,-1.71
2023-03-01T23:31:51.434Z,-1.70
2023-03-01T23:34:20.008Z,-1.71
2023-03-01T23:36:48.281Z,-1.73
2023-03-01T23:39:16.562Z,-1.74
2023-03-01T23:41:45.348Z,-1.75
2023-03-01T23:44:21.138Z,-1.76
2023-03-01T23:46:50.400Z,-1.78
2023-03-01T23:49:21.946Z,-1.81
2023-03-01T23:51:50.550Z,-1.84
2023-03-01T23:54:21.723Z,-1.85
2023-03-01T23:56:50.170Z,-1.86
2023-03-01T23:59:22.090Z,-1.87
